createdAt,value
2016-12-10T00:00:36.722Z,9.66
2016-12-10T00:01:17.252Z,9.72
2016-12-10T00:01:57.714Z,9.69
2016-12-10T00:02:38.191Z,9.69
2016-12-10T00:03:18.684Z,9.73
2016-12-10T00:03:59.163Z,9.72
2016-12-10T00:04:39.635Z,9.69
2016-12-10T00:05:20.145Z,9.68
2016-12-10T00:06:00.590Z,9.72
2016-12-10T00:06:41.092Z,9.76
2016-12-10T00:07:21.536Z,9.69
2016-12-10T00:08:02.015Z,9.72
2016-12-10T00:08:42.494Z,9.74
2016-12-10T00:09:23.003Z,9.76
2016-12-10T00:10:03.438Z,9.73
2016-12-10T00:10:43.922Z,9.76
2016-12-10T00:11:24.380Z,9.77
2016-12-10T00:12:04.851Z,9.79
2016-12-10T00:12:45.346Z,9.76
2016-12-10T00:13:25.831Z,9.77
2016-12-10T00:14:06.319Z,9.74
2016-12-10T00:14:46.789Z,9.69
2016-12-10T00:15:27.308Z,9.74
2016-12-10T00:16:07.785Z,9.76
2016-12-10T00:16:48.234Z,9.73
2016-12-10T00:17:28.716Z,9.74
2016-12-10T00:18:09.188Z,9.76
2016-12-10T00:18:49.697Z,9.72
2016-12-10T00:19:30.179Z,9.73
2016-12-10T00:20:10.645Z,9.73
2016-12-10T00:20:51.137Z,9.73
2016-12-10T00:21:31.580Z,9.68
2016-12-10T00:22:12.115Z,9.79
2016-12-10T00:22:52.597Z,9.76
2016-12-10T00:23:33.068Z,9.72
2016-12-10T00:24:13.541Z,9.74
2016-12-10T00:24:54.028Z,9.68
2016-12-10T00:25:34.507Z,9.79
2016-12-10T00:26:14.982Z,9.76
2016-12-10T00:26:55.454Z,9.72
2016-12-10T00:27:35.942Z,9.69
2016-12-10T00:28:16.435Z,9.73
2016-12-10T00:28:56.904Z,9.79
2016-12-10T00:29:37.424Z,9.69
2016-12-10T00:30:17.868Z,9.76
2016-12-10T00:30:58.334Z,9.72
2016-12-10T00:31:38.820Z,9.69
2016-12-10T00:32:19.289Z,9.73
2016-12-10T00:32:59.748Z,9.69
2016-12-10T00:33:40.195Z,9.64
2016-12-10T00:34:20.672Z,9.68
2016-12-10T00:35:01.150Z,9.69
2016-12-10T00:35:41.639Z,9.65
2016-12-10T00:36:22.117Z,9.73
2016-12-10T00:37:02.580Z,9.73
2016-12-10T00:37:43.060Z,9.72
2016-12-10T00:38:23.544Z,9.74
2016-12-10T00:39:04.036Z,9.72
2016-12-10T00:39:44.514Z,9.74
2016-12-10T00:40:24.989Z,9.74
2016-12-10T00:41:05.492Z,9.72
2016-12-10T00:41:46.001Z,9.68
2016-12-10T00:42:26.479Z,9.74
2016-12-10T00:43:06.950Z,9.73
2016-12-10T00:43:47.456Z,9.72
2016-12-10T00:44:27.955Z,9.72
2016-12-10T00:45:08.412Z,9.72
2016-12-10T00:45:48.897Z,9.72
2016-12-10T00:46:29.366Z,9.65
2016-12-10T00:47:09.846Z,9.72
2016-12-10T00:47:50.354Z,9.72
2016-12-10T00:48:30.829Z,9.66
2016-12-10T00:49:11.313Z,9.64
2016-12-10T00:49:51.787Z,9.61
2016-12-10T00:50:32.289Z,9.65
2016-12-10T00:51:12.795Z,9.66
2016-12-10T00:51:53.284Z,9.68
2016-12-10T00:52:33.705Z,9.69
2016-12-10T00:53:14.172Z,9.69
2016-12-10T00:53:54.664Z,9.73
2016-12-10T00:54:35.129Z,9.74
2016-12-10T00:55:15.609Z,9.73
2016-12-10T00:55:56.070Z,9.72
2016-12-10T00:56:36.560Z,9.73
2016-12-10T00:57:17.020Z,9.68
2016-12-10T00:57:57.483Z,9.66
2016-12-10T00:58:38.002Z,9.66
2016-12-10T00:59:18.468Z,9.68
2016-12-10T00:59:58.939Z,9.66
2016-12-10T01:00:39.431Z,9.73
2016-12-10T01:01:19.882Z,9.69
2016-12-10T01:02:00.395Z,9.69
2016-12-10T01:02:40.842Z,9.69
2016-12-10T01:03:21.336Z,9.73
2016-12-10T01:04:01.794Z,9.76
2016-12-10T01:04:42.302Z,9.69
2016-12-10T01:05:22.763Z,9.77
2016-12-10T01:06:03.276Z,9.68
2016-12-10T01:06:43.745Z,9.74
2016-12-10T01:07:24.215Z,9.74
2016-12-10T01:08:04.687Z,9.61
2016-12-10T01:08:45.164Z,9.72
2016-12-10T01:09:25.648Z,9.66
2016-12-10T01:10:06.124Z,9.73
2016-12-10T01:10:46.618Z,9.68
2016-12-10T01:11:27.128Z,9.69
2016-12-10T01:12:07.613Z,9.68
2016-12-10T01:12:48.089Z,9.72
2016-12-10T01:13:28.557Z,9.72
2016-12-10T01:14:09.071Z,9.69
2016-12-10T01:14:49.544Z,9.64
2016-12-10T01:15:30.037Z,9.74
2016-12-10T01:16:10.518Z,9.72
2016-12-10T01:16:50.994Z,9.72
2016-12-10T01:17:31.441Z,9.62
2016-12-10T01:18:11.917Z,9.65
2016-12-10T01:18:52.423Z,9.68
2016-12-10T01:19:32.909Z,9.68
2016-12-10T01:20:13.397Z,9.69
2016-12-10T01:20:53.841Z,9.68
2016-12-10T01:21:34.320Z,9.61
2016-12-10T01:22:14.787Z,9.66
2016-12-10T01:22:55.261Z,9.68
2016-12-10T01:23:35.765Z,9.65
2016-12-10T01:24:16.244Z,9.68
2016-12-10T01:24:56.755Z,9.64
2016-12-10T01:25:37.227Z,9.66
2016-12-10T01:26:17.721Z,9.64
2016-12-10T01:26:58.157Z,9.62
2016-12-10T01:27:38.621Z,9.64
2016-12-10T01:28:19.097Z,9.64
2016-12-10T01:28:59.574Z,9.68
2016-12-10T01:29:40.087Z,9.64
2016-12-10T01:30:20.553Z,9.69
2016-12-10T01:31:01.027Z,9.64
2016-12-10T01:31:41.521Z,9.69
2016-12-10T01:32:21.985Z,9.64
2016-12-10T01:33:02.463Z,9.64
2016-12-10T01:33:42.963Z,9.62
2016-12-10T01:34:23.433Z,9.62
2016-12-10T01:35:03.921Z,9.64
2016-12-10T01:35:44.439Z,9.66
2016-12-10T01:36:24.926Z,9.66
2016-12-10T01:37:05.414Z,9.59
2016-12-10T01:37:45.871Z,9.66
2016-12-10T01:38:26.360Z,9.61
2016-12-10T01:39:06.836Z,9.66
2016-12-10T01:39:47.347Z,9.59
2016-12-10T01:40:27.828Z,9.66
2016-12-10T01:41:08.333Z,9.58
2016-12-10T01:41:48.804Z,9.65
2016-12-10T01:42:29.280Z,9.61
2016-12-10T01:43:09.768Z,9.69
2016-12-10T01:43:50.250Z,9.64
2016-12-10T01:44:30.724Z,9.58
2016-12-10T01:45:11.227Z,9.62
2016-12-10T01:45:51.706Z,9.64
2016-12-10T01:46:32.178Z,9.64
2016-12-10T01:47:12.676Z,9.66
2016-12-10T01:47:53.175Z,9.61
2016-12-10T01:48:33.656Z,9.74
2016-12-10T01:49:14.134Z,9.72
2016-12-10T01:49:54.622Z,9.68
2016-12-10T01:50:35.107Z,9.69
2016-12-10T01:51:15.581Z,9.76
2016-12-10T01:51:56.046Z,9.68
2016-12-10T01:52:36.545Z,9.65
2016-12-10T01:53:17.003Z,9.65
2016-12-10T01:53:57.475Z,9.61
2016-12-10T01:54:37.963Z,9.61
2016-12-10T01:55:18.442Z,9.73
2016-12-10T01:55:58.938Z,9.66
2016-12-10T01:56:39.417Z,9.72
2016-12-10T01:57:19.904Z,9.73
2016-12-10T01:58:00.384Z,9.72
2016-12-10T01:58:40.861Z,9.61
2016-12-10T01:59:21.366Z,9.68
2016-12-10T02:00:01.854Z,9.61
2016-12-10T02:00:42.332Z,9.64
2016-12-10T02:01:22.840Z,9.72
2016-12-10T02:02:03.342Z,9.68
2016-12-10T02:02:43.828Z,9.66
2016-12-10T02:03:24.283Z,9.66
2016-12-10T02:04:04.775Z,9.73
2016-12-10T02:04:45.237Z,9.69
2016-12-10T02:05:25.739Z,9.66
2016-12-10T02:06:06.207Z,9.61
2016-12-10T02:06:46.714Z,9.65
2016-12-10T02:07:27.250Z,9.66
2016-12-10T02:08:07.715Z,9.59
2016-12-10T02:08:48.182Z,9.61
2016-12-10T02:09:28.685Z,9.58
2016-12-10T02:10:09.151Z,9.69
2016-12-10T02:10:49.617Z,9.64
2016-12-10T02:11:30.122Z,9.65
2016-12-10T02:12:10.580Z,9.62
2016-12-10T02:12:51.069Z,9.68
2016-12-10T02:13:31.534Z,9.62
2016-12-10T02:14:12.008Z,9.65
2016-12-10T02:14:52.541Z,9.65
2016-12-10T02:15:33.021Z,9.62
2016-12-10T02:16:13.506Z,9.62
2016-12-10T02:16:54.024Z,9.65
2016-12-10T02:17:34.494Z,9.62
2016-12-10T02:18:14.963Z,9.68
2016-12-10T02:18:55.459Z,9.64
2016-12-10T02:19:35.950Z,9.68
2016-12-10T02:20:16.452Z,9.61
2016-12-10T02:20:56.921Z,9.69
2016-12-10T02:21:37.422Z,9.69
2016-12-10T02:22:17.912Z,9.66
2016-12-10T02:22:58.378Z,9.66
2016-12-10T02:23:38.855Z,9.65
2016-12-10T02:24:19.339Z,9.58
2016-12-10T02:24:59.821Z,9.61
2016-12-10T02:25:40.282Z,9.65
2016-12-10T02:26:20.734Z,9.66
2016-12-10T02:27:01.220Z,9.61
2016-12-10T02:27:41.705Z,9.58
2016-12-10T02:28:22.150Z,9.61
2016-12-10T02:29:02.652Z,9.59
2016-12-10T02:29:43.154Z,9.72
2016-12-10T02:30:23.605Z,9.59
2016-12-10T02:31:04.082Z,9.64
2016-12-10T02:31:44.517Z,9.68
2016-12-10T02:32:24.985Z,9.68
2016-12-10T02:33:05.524Z,9.72
2016-12-10T02:33:46.015Z,9.68
2016-12-10T02:34:26.473Z,9.64
2016-12-10T02:35:06.946Z,9.65
2016-12-10T02:35:47.501Z,9.55
2016-12-10T02:36:27.997Z,9.64
2016-12-10T02:37:08.493Z,9.58
2016-12-10T02:37:48.987Z,9.56
2016-12-10T02:38:29.429Z,9.56
2016-12-10T02:39:09.963Z,9.61
2016-12-10T02:39:50.444Z,9.48
2016-12-10T02:40:30.913Z,9.65
2016-12-10T02:41:11.396Z,9.55
2016-12-10T02:41:51.880Z,9.47
2016-12-10T02:42:32.373Z,9.51
2016-12-10T02:43:12.807Z,9.56
2016-12-10T02:43:53.324Z,9.5
2016-12-10T02:44:33.801Z,9.58
2016-12-10T02:45:14.299Z,9.56
2016-12-10T02:45:54.784Z,9.55
2016-12-10T02:46:35.240Z,9.66
2016-12-10T02:47:15.731Z,9.58
2016-12-10T02:47:56.200Z,9.58
2016-12-10T02:48:36.677Z,9.47
2016-12-10T02:49:17.176Z,9.59
2016-12-10T02:49:57.635Z,9.56
2016-12-10T02:50:38.124Z,9.65
2016-12-10T02:51:18.594Z,9.54
2016-12-10T02:51:59.063Z,9.61
2016-12-10T02:52:39.532Z,9.54
2016-12-10T02:53:20.064Z,9.62
2016-12-10T02:54:00.530Z,9.65
2016-12-10T02:54:41.000Z,9.68
2016-12-10T02:55:21.499Z,9.69
2016-12-10T02:56:01.965Z,9.65
2016-12-10T02:56:42.465Z,9.62
2016-12-10T02:57:22.912Z,9.66
2016-12-10T02:58:03.387Z,9.65
2016-12-10T02:58:43.852Z,9.69
2016-12-10T02:59:24.344Z,9.59
2016-12-10T03:00:04.819Z,9.66
2016-12-10T03:00:45.297Z,9.69
2016-12-10T03:01:25.783Z,9.66
2016-12-10T03:02:06.282Z,9.68
2016-12-10T03:02:46.733Z,9.62
2016-12-10T03:03:27.271Z,9.69
2016-12-10T03:04:07.714Z,9.65
2016-12-10T03:04:48.207Z,9.62
2016-12-10T03:05:28.676Z,9.69
2016-12-10T03:06:09.153Z,9.65
2016-12-10T03:06:49.638Z,9.66
2016-12-10T03:07:30.110Z,9.64
2016-12-10T03:08:10.600Z,9.61
2016-12-10T03:08:51.076Z,9.66
2016-12-10T03:09:31.559Z,9.62
2016-12-10T03:10:12.042Z,9.58
2016-12-10T03:10:52.645Z,9.65
2016-12-10T03:11:33.091Z,9.64
2016-12-10T03:12:13.583Z,9.64
2016-12-10T03:12:54.053Z,9.69
2016-12-10T03:13:34.555Z,9.68
2016-12-10T03:14:15.033Z,9.62
2016-12-10T03:14:55.497Z,9.72
2016-12-10T03:15:35.982Z,9.72
2016-12-10T03:16:16.452Z,9.73
2016-12-10T03:16:56.899Z,9.76
2016-12-10T03:17:37.373Z,9.73
2016-12-10T03:18:17.846Z,9.72
2016-12-10T03:18:58.352Z,9.73
2016-12-10T03:19:38.814Z,9.72
2016-12-10T03:20:19.307Z,9.72
2016-12-10T03:20:59.799Z,9.66
2016-12-10T03:21:40.270Z,9.73
2016-12-10T03:22:20.731Z,9.74
2016-12-10T03:23:01.222Z,9.76
2016-12-10T03:23:41.699Z,9.68
2016-12-10T03:24:22.160Z,9.66
2016-12-10T03:25:02.636Z,9.76
2016-12-10T03:25:43.128Z,9.74
2016-12-10T03:26:23.607Z,9.73
2016-12-10T03:27:04.108Z,9.69
2016-12-10T03:27:44.577Z,9.68
2016-12-10T03:28:25.067Z,9.72
2016-12-10T03:29:05.511Z,9.68
2016-12-10T03:29:46.004Z,9.77
2016-12-10T03:30:26.436Z,9.69
2016-12-10T03:31:06.924Z,9.69
2016-12-10T03:31:47.376Z,9.69
2016-12-10T03:32:27.878Z,9.68
2016-12-10T03:33:08.323Z,9.68
2016-12-10T03:33:48.787Z,9.73
2016-12-10T03:34:29.231Z,9.73
2016-12-10T03:35:09.712Z,9.69
2016-12-10T03:35:50.199Z,9.73
2016-12-10T03:36:30.703Z,9.66
2016-12-10T03:37:11.132Z,9.68
2016-12-10T03:37:51.618Z,9.72
2016-12-10T03:38:32.079Z,9.64
2016-12-10T03:39:12.558Z,9.72
2016-12-10T03:39:53.011Z,9.73
2016-12-10T03:40:33.482Z,9.65
2016-12-10T03:41:13.960Z,9.64
2016-12-10T03:41:54.450Z,9.72
2016-12-10T03:42:34.937Z,9.72
2016-12-10T03:43:15.427Z,9.66
2016-12-10T03:43:55.897Z,9.73
2016-12-10T03:44:36.392Z,9.72
2016-12-10T03:45:16.863Z,9.69
2016-12-10T03:45:57.376Z,9.68
2016-12-10T03:46:37.835Z,9.72
2016-12-10T03:47:18.298Z,9.73
2016-12-10T03:47:58.816Z,9.73
2016-12-10T03:48:39.469Z,9.69
2016-12-10T03:49:19.748Z,9.68
2016-12-10T03:50:00.239Z,9.69
2016-12-10T03:50:40.701Z,9.69
2016-12-10T03:51:21.151Z,9.73
2016-12-10T03:52:01.633Z,9.69
2016-12-10T03:52:42.135Z,9.72
2016-12-10T03:53:22.674Z,9.69
2016-12-10T03:54:03.119Z,9.74
2016-12-10T03:54:43.569Z,9.76
2016-12-10T03:55:24.078Z,9.68
2016-12-10T03:56:04.536Z,9.66
2016-12-10T03:56:44.981Z,9.74
2016-12-10T03:57:25.474Z,9.73
2016-12-10T03:58:05.926Z,9.76
2016-12-10T03:58:46.402Z,9.76
2016-12-10T03:59:26.891Z,9.69
2016-12-10T04:00:07.377Z,9.74
2016-12-10T04:00:47.833Z,9.65
2016-12-10T04:01:28.327Z,9.69
2016-12-10T04:02:08.790Z,9.68
2016-12-10T04:02:49.279Z,9.72
2016-12-10T04:03:29.744Z,9.72
2016-12-10T04:04:10.244Z,9.74
2016-12-10T04:04:50.751Z,9.72
2016-12-10T04:05:31.216Z,9.65
2016-12-10T04:06:11.676Z,9.72
2016-12-10T04:06:52.162Z,9.73
2016-12-10T04:07:32.592Z,9.72
2016-12-10T04:08:13.048Z,9.73
2016-12-10T04:08:53.527Z,9.74
2016-12-10T04:09:34.053Z,9.68
2016-12-10T04:10:14.535Z,9.73
2016-12-10T04:10:55.076Z,9.61
2016-12-10T04:11:35.546Z,9.68
2016-12-10T04:12:16.023Z,9.59
2016-12-10T04:12:56.534Z,9.62
2016-12-10T04:13:36.997Z,9.64
2016-12-10T04:14:17.467Z,9.64
2016-12-10T04:14:57.960Z,9.68
2016-12-10T04:15:38.421Z,9.56
2016-12-10T04:16:18.875Z,9.59
2016-12-10T04:16:59.366Z,9.64
2016-12-10T04:17:39.831Z,9.59
2016-12-10T04:18:20.342Z,9.56
2016-12-10T04:19:00.797Z,9.55
2016-12-10T04:19:41.271Z,9.51
2016-12-10T04:20:21.769Z,9.51
2016-12-10T04:21:02.252Z,9.51
2016-12-10T04:21:42.680Z,9.48
2016-12-10T04:22:23.163Z,9.55
2016-12-10T04:23:03.648Z,9.54
2016-12-10T04:23:44.125Z,9.48
2016-12-10T04:24:24.614Z,9.56
2016-12-10T04:25:05.106Z,9.55
2016-12-10T04:25:45.597Z,9.54
2016-12-10T04:26:26.062Z,9.51
2016-12-10T04:27:06.526Z,9.55
2016-12-10T04:27:47.046Z,9.47
2016-12-10T04:28:27.547Z,9.47
2016-12-10T04:29:07.993Z,9.47
2016-12-10T04:29:48.504Z,9.47
2016-12-10T04:30:28.993Z,9.44
2016-12-10T04:31:09.453Z,9.4
2016-12-10T04:31:49.929Z,9.4
2016-12-10T04:32:30.406Z,9.37
2016-12-10T04:33:10.889Z,9.4
2016-12-10T04:33:51.371Z,9.43
2016-12-10T04:34:31.829Z,9.44
2016-12-10T04:35:12.319Z,9.41
2016-12-10T04:35:52.800Z,9.4
2016-12-10T04:36:33.268Z,9.4
2016-12-10T04:37:13.738Z,9.41
2016-12-10T04:37:54.212Z,9.44
2016-12-10T04:38:34.681Z,9.4
2016-12-10T04:39:15.173Z,9.4
2016-12-10T04:39:55.645Z,9.41
2016-12-10T04:40:36.085Z,9.37
2016-12-10T04:41:16.550Z,9.4
2016-12-10T04:41:57.019Z,9.4
2016-12-10T04:42:37.460Z,9.41
2016-12-10T04:43:17.931Z,9.39
2016-12-10T04:43:58.414Z,9.41
2016-12-10T04:44:38.872Z,9.39
2016-12-10T04:45:19.356Z,9.37
2016-12-10T04:45:59.815Z,9.4
2016-12-10T04:46:40.294Z,9.41
2016-12-10T04:47:20.796Z,9.4
2016-12-10T04:48:01.262Z,9.39
2016-12-10T04:48:41.769Z,9.39
2016-12-10T04:49:22.281Z,9.43
2016-12-10T04:50:02.782Z,9.4
2016-12-10T04:50:43.256Z,9.43
2016-12-10T04:51:23.712Z,9.4
2016-12-10T04:52:04.193Z,9.39
2016-12-10T04:52:44.702Z,9.37
2016-12-10T04:53:25.179Z,9.4
2016-12-10T04:54:05.616Z,9.37
2016-12-10T04:54:46.125Z,9.43
2016-12-10T04:55:26.587Z,9.41
2016-12-10T04:56:07.058Z,9.4
2016-12-10T04:56:47.549Z,9.41
2016-12-10T04:57:27.995Z,9.43
2016-12-10T04:58:08.478Z,9.39
2016-12-10T04:58:48.948Z,9.34
2016-12-10T04:59:29.444Z,9.34
2016-12-10T05:00:09.936Z,9.34
2016-12-10T05:00:50.419Z,9.4
2016-12-10T05:01:30.909Z,9.31
2016-12-10T05:02:11.386Z,9.37
2016-12-10T05:02:51.891Z,9.32
2016-12-10T05:03:32.341Z,9.37
2016-12-10T05:04:12.844Z,9.39
2016-12-10T05:04:53.304Z,9.37
2016-12-10T05:05:33.790Z,9.32
2016-12-10T05:06:14.299Z,9.36
2016-12-10T05:06:54.805Z,9.31
2016-12-10T05:07:35.273Z,9.36
2016-12-10T05:08:15.768Z,9.29
2016-12-10T05:08:56.249Z,9.25
2016-12-10T05:09:36.718Z,9.31
2016-12-10T05:10:17.205Z,9.29
2016-12-10T05:10:57.661Z,9.22
2016-12-10T05:11:38.141Z,9.29
2016-12-10T05:12:18.615Z,9.29
2016-12-10T05:12:59.088Z,9.23
2016-12-10T05:13:39.560Z,9.19
2016-12-10T05:14:20.036Z,9.18
2016-12-10T05:15:00.526Z,9.18
2016-12-10T05:15:40.994Z,9.19
2016-12-10T05:16:21.480Z,9.25
2016-12-10T05:17:01.992Z,9.22
2016-12-10T05:17:42.487Z,9.16
2016-12-10T05:18:22.989Z,9.11
2016-12-10T05:19:03.496Z,9.18
2016-12-10T05:19:44.015Z,9.11
2016-12-10T05:20:24.484Z,9.04
2016-12-10T05:21:04.971Z,9.08
2016-12-10T05:21:45.433Z,9.04
2016-12-10T05:22:25.920Z,9.08
2016-12-10T05:23:06.364Z,9.13
2016-12-10T05:23:46.864Z,9.02
2016-12-10T05:24:27.340Z,9
2016-12-10T05:25:07.819Z,9.03
2016-12-10T05:25:48.276Z,8.99
2016-12-10T05:26:28.748Z,9.02
2016-12-10T05:27:09.211Z,8.95
2016-12-10T05:27:49.690Z,9
2016-12-10T05:28:30.178Z,8.97
2016-12-10T05:29:10.626Z,8.99
2016-12-10T05:29:51.104Z,9
2016-12-10T05:30:31.575Z,8.92
2016-12-10T05:31:12.056Z,8.94
2016-12-10T05:31:52.548Z,8.92
2016-12-10T05:32:33.043Z,8.88
2016-12-10T05:33:13.515Z,8.94
2016-12-10T05:33:53.987Z,8.87
2016-12-10T05:34:34.449Z,8.91
2016-12-10T05:35:14.964Z,8.92
2016-12-10T05:35:55.448Z,8.91
2016-12-10T05:36:35.913Z,8.89
2016-12-10T05:37:16.376Z,8.84
2016-12-10T05:37:56.860Z,8.91
2016-12-10T05:38:37.376Z,8.92
2016-12-10T05:39:17.866Z,8.92
2016-12-10T05:39:58.327Z,8.91
2016-12-10T05:40:38.802Z,8.91
2016-12-10T05:41:19.286Z,8.84
2016-12-10T05:41:59.761Z,8.92
2016-12-10T05:42:40.312Z,8.95
2016-12-10T05:43:20.788Z,8.84
2016-12-10T05:44:01.248Z,8.97
2016-12-10T05:44:41.726Z,8.94
2016-12-10T05:45:22.204Z,8.94
2016-12-10T05:46:02.703Z,8.88
2016-12-10T05:46:43.187Z,8.85
2016-12-10T05:47:23.638Z,8.82
2016-12-10T05:48:04.141Z,8.94
2016-12-10T05:48:44.597Z,8.84
2016-12-10T05:49:25.060Z,8.79
2016-12-10T05:50:05.580Z,8.78
2016-12-10T05:50:46.057Z,8.84
2016-12-10T05:51:26.549Z,8.84
2016-12-10T05:52:07.029Z,8.88
2016-12-10T05:52:47.494Z,8.78
2016-12-10T05:53:28.000Z,8.87
2016-12-10T05:54:08.439Z,8.73
2016-12-10T05:54:48.942Z,8.85
2016-12-10T05:55:29.395Z,8.74
2016-12-10T05:56:09.852Z,8.84
2016-12-10T05:56:50.326Z,8.82
2016-12-10T05:57:30.819Z,8.76
2016-12-10T05:58:11.266Z,8.87
2016-12-10T05:58:51.739Z,8.82
2016-12-10T05:59:32.205Z,8.84
2016-12-10T06:00:12.691Z,8.88
2016-12-10T06:00:53.172Z,8.78
2016-12-10T06:01:33.631Z,8.81
2016-12-10T06:02:14.123Z,8.85
2016-12-10T06:02:54.620Z,8.78
2016-12-10T06:03:35.082Z,8.81
2016-12-10T06:04:15.566Z,8.74
2016-12-10T06:04:56.068Z,8.82
2016-12-10T06:05:36.542Z,8.82
2016-12-10T06:06:17.027Z,8.82
2016-12-10T06:06:57.532Z,8.79
2016-12-10T06:07:37.984Z,8.79
2016-12-10T06:08:18.468Z,8.74
2016-12-10T06:08:58.940Z,8.78
2016-12-10T06:09:39.430Z,8.73
2016-12-10T06:10:19.909Z,8.73
2016-12-10T06:11:00.375Z,8.69
2016-12-10T06:11:40.840Z,8.7
2016-12-10T06:12:21.315Z,8.74
2016-12-10T06:13:01.769Z,8.76
2016-12-10T06:13:42.258Z,8.69
2016-12-10T06:14:22.720Z,8.7
2016-12-10T06:15:03.232Z,8.7
2016-12-10T06:15:43.719Z,8.71
2016-12-10T06:16:24.173Z,8.64
2016-12-10T06:17:04.646Z,8.7
2016-12-10T06:17:45.131Z,8.74
2016-12-10T06:18:25.606Z,8.7
2016-12-10T06:19:06.104Z,8.7
2016-12-10T06:19:46.608Z,8.56
2016-12-10T06:20:27.105Z,8.56
2016-12-10T06:21:07.582Z,8.6
2016-12-10T06:21:48.052Z,8.56
2016-12-10T06:22:28.552Z,8.64
2016-12-10T06:23:09.022Z,8.67
2016-12-10T06:23:49.528Z,8.66
2016-12-10T06:24:30.002Z,8.64
2016-12-10T06:25:10.488Z,8.6
2016-12-10T06:25:50.946Z,8.63
2016-12-10T06:26:31.409Z,8.6
2016-12-10T06:27:11.903Z,8.61
2016-12-10T06:27:52.375Z,8.61
2016-12-10T06:28:32.866Z,8.55
2016-12-10T06:29:13.346Z,8.63
2016-12-10T06:29:53.847Z,8.61
2016-12-10T06:30:34.302Z,8.52
2016-12-10T06:31:14.781Z,8.58
2016-12-10T06:31:55.293Z,8.6
2016-12-10T06:32:35.752Z,8.58
2016-12-10T06:33:16.233Z,8.53
2016-12-10T06:33:56.696Z,8.52
2016-12-10T06:34:37.183Z,8.51
2016-12-10T06:35:17.653Z,8.56
2016-12-10T06:35:58.139Z,8.53
2016-12-10T06:36:38.646Z,8.55
2016-12-10T06:37:19.092Z,8.58
2016-12-10T06:37:59.595Z,8.53
2016-12-10T06:38:40.056Z,8.51
2016-12-10T06:39:20.562Z,8.53
2016-12-10T06:40:01.061Z,8.52
2016-12-10T06:40:41.484Z,8.52
2016-12-10T06:41:21.991Z,8.52
2016-12-10T06:42:02.480Z,8.49
2016-12-10T06:42:42.950Z,8.49
2016-12-10T06:43:23.426Z,8.52
2016-12-10T06:44:03.917Z,8.48
2016-12-10T06:44:44.421Z,8.42
2016-12-10T06:45:24.861Z,8.52
2016-12-10T06:46:05.375Z,8.48
2016-12-10T06:46:45.824Z,8.48
2016-12-10T06:47:26.306Z,8.45
2016-12-10T06:48:06.763Z,8.48
2016-12-10T06:48:47.250Z,8.42
2016-12-10T06:49:27.724Z,8.44
2016-12-10T06:50:08.194Z,8.46
2016-12-10T06:50:48.659Z,8.46
2016-12-10T06:51:29.126Z,8.49
2016-12-10T06:52:09.601Z,8.38
2016-12-10T06:52:50.062Z,8.49
2016-12-10T06:53:30.542Z,8.49
2016-12-10T06:54:11.020Z,8.42
2016-12-10T06:54:51.489Z,8.38
2016-12-10T06:55:31.972Z,8.42
2016-12-10T06:56:12.440Z,8.44
2016-12-10T06:56:52.935Z,8.48
2016-12-10T06:57:33.416Z,8.46
2016-12-10T06:58:13.938Z,8.42
2016-12-10T06:58:54.377Z,8.41
2016-12-10T06:59:34.844Z,8.42
2016-12-10T07:00:15.334Z,8.44
2016-12-10T07:00:55.790Z,8.48
2016-12-10T07:01:36.283Z,8.41
2016-12-10T07:02:16.738Z,8.41
2016-12-10T07:02:57.195Z,8.44
2016-12-10T07:03:37.689Z,8.42
2016-12-10T07:04:18.135Z,8.48
2016-12-10T07:04:58.593Z,8.41
2016-12-10T07:05:39.085Z,8.41
2016-12-10T07:06:19.557Z,8.38
2016-12-10T07:07:00.019Z,8.45
2016-12-10T07:07:40.487Z,8.46
2016-12-10T07:08:20.997Z,8.45
2016-12-10T07:09:01.469Z,8.52
2016-12-10T07:09:41.971Z,8.42
2016-12-10T07:10:22.453Z,8.46
2016-12-10T07:11:02.941Z,8.49
2016-12-10T07:11:43.403Z,8.38
2016-12-10T07:12:23.870Z,8.53
2016-12-10T07:13:04.358Z,8.51
2016-12-10T07:13:44.839Z,8.44
2016-12-10T07:14:25.347Z,8.45
2016-12-10T07:15:05.836Z,8.44
2016-12-10T07:15:46.324Z,8.45
2016-12-10T07:16:26.793Z,8.44
2016-12-10T07:17:07.267Z,8.49
2016-12-10T07:17:47.759Z,8.46
2016-12-10T07:18:28.255Z,8.51
2016-12-10T07:19:08.754Z,8.49
2016-12-10T07:19:49.210Z,8.44
2016-12-10T07:20:29.686Z,8.38
2016-12-10T07:21:10.157Z,8.45
2016-12-10T07:21:50.653Z,8.53
2016-12-10T07:22:31.125Z,8.41
2016-12-10T07:23:11.614Z,8.48
2016-12-10T07:23:52.059Z,8.42
2016-12-10T07:24:32.529Z,8.45
2016-12-10T07:25:13.008Z,8.49
2016-12-10T07:25:53.487Z,8.49
2016-12-10T07:26:33.958Z,8.45
2016-12-10T07:27:14.476Z,8.49
2016-12-10T07:27:54.970Z,8.45
2016-12-10T07:28:35.443Z,8.52
2016-12-10T07:29:15.921Z,8.33
2016-12-10T07:29:56.410Z,8.41
2016-12-10T07:30:36.921Z,8.53
2016-12-10T07:31:17.425Z,8.55
2016-12-10T07:31:57.859Z,8.42
2016-12-10T07:32:38.358Z,8.44
2016-12-10T07:33:18.858Z,8.51
2016-12-10T07:33:59.338Z,8.51
2016-12-10T07:34:39.812Z,8.46
2016-12-10T07:35:20.280Z,8.51
2016-12-10T07:36:00.749Z,8.46
2016-12-10T07:36:41.214Z,8.48
2016-12-10T07:37:21.672Z,8.45
2016-12-10T07:38:02.175Z,8.44
2016-12-10T07:38:42.674Z,8.45
2016-12-10T07:39:23.158Z,8.41
2016-12-10T07:40:03.661Z,8.51
2016-12-10T07:40:44.148Z,8.49
2016-12-10T07:41:25.040Z,8.41
2016-12-10T07:42:09.277Z,8.38
2016-12-10T07:42:49.629Z,8.42
2016-12-10T07:43:30.167Z,8.44
2016-12-10T07:44:10.772Z,8.51
2016-12-10T07:44:51.557Z,8.49
2016-12-10T07:45:32.154Z,8.51
2016-12-10T07:46:12.830Z,8.46
2016-12-10T07:46:54.169Z,8.55
2016-12-10T07:47:34.652Z,8.52
2016-12-10T07:48:15.132Z,8.52
2016-12-10T07:48:55.612Z,8.56
2016-12-10T07:49:36.117Z,8.55
2016-12-10T07:50:17.237Z,8.55
2016-12-10T07:50:57.368Z,8.52
2016-12-10T07:51:37.948Z,8.56
2016-12-10T07:52:18.511Z,8.52
2016-12-10T07:52:59.121Z,8.48
2016-12-10T07:53:39.557Z,8.55
2016-12-10T07:54:20.048Z,8.56
2016-12-10T07:55:00.518Z,8.52
2016-12-10T07:55:42.172Z,8.52
2016-12-10T07:56:22.644Z,8.52
2016-12-10T07:57:03.155Z,8.51
2016-12-10T07:57:43.767Z,8.52
2016-12-10T07:58:24.221Z,8.53
2016-12-10T07:59:04.844Z,8.52
2016-12-10T07:59:45.356Z,8.45
2016-12-10T08:00:25.858Z,8.53
2016-12-10T08:01:06.383Z,8.46
2016-12-10T08:01:47.020Z,8.51
2016-12-10T08:03:43.644Z,8.41
2016-12-10T08:05:34.745Z,8.52
2016-12-10T08:06:18.949Z,8.42
2016-12-10T08:06:58.944Z,8.41
2016-12-10T08:07:39.415Z,8.48
2016-12-10T08:08:19.870Z,8.44
2016-12-10T08:09:00.382Z,8.42
2016-12-10T08:09:40.844Z,8.49
2016-12-10T08:10:21.324Z,8.45
2016-12-10T08:11:01.799Z,8.42
2016-12-10T08:11:42.268Z,8.46
2016-12-10T08:12:22.756Z,8.49
2016-12-10T08:13:03.239Z,8.53
2016-12-10T08:13:43.681Z,8.52
2016-12-10T08:14:24.178Z,8.48
2016-12-10T08:15:04.650Z,8.52
2016-12-10T08:15:45.138Z,8.51
2016-12-10T08:16:25.603Z,8.51
2016-12-10T08:17:06.099Z,8.53
2016-12-10T08:17:46.659Z,8.58
2016-12-10T08:18:27.130Z,8.49
2016-12-10T08:19:07.582Z,8.53
2016-12-10T08:19:48.129Z,8.53
2016-12-10T08:20:28.619Z,8.51
2016-12-10T08:21:09.086Z,8.52
2016-12-10T08:21:50.136Z,8.55
2016-12-10T08:22:33.774Z,8.53
2016-12-10T08:25:31.504Z,8.52
2016-12-10T08:26:15.246Z,8.56
2016-12-10T08:26:55.360Z,8.58
2016-12-10T08:27:35.860Z,8.64
2016-12-10T08:28:16.456Z,8.53
2016-12-10T08:28:56.975Z,8.7
2016-12-10T08:29:37.764Z,8.55
2016-12-10T08:30:18.263Z,8.61
2016-12-10T08:30:58.793Z,8.58
2016-12-10T08:31:39.301Z,8.61
2016-12-10T08:32:19.906Z,8.61
2016-12-10T08:33:00.403Z,8.55
2016-12-10T08:33:41.745Z,8.56
2016-12-10T08:34:22.199Z,8.52
2016-12-10T08:35:02.680Z,8.58
2016-12-10T08:35:43.320Z,8.55
2016-12-10T08:36:23.658Z,8.52
2016-12-10T08:37:04.330Z,8.58
2016-12-10T08:37:44.810Z,8.55
2016-12-10T08:38:25.442Z,8.58
2016-12-10T08:39:06.818Z,8.58
2016-12-10T08:39:47.316Z,8.63
2016-12-10T08:40:28.783Z,8.52
2016-12-10T08:41:09.271Z,8.56
2016-12-10T08:41:49.763Z,8.6
2016-12-10T08:42:30.242Z,8.58
2016-12-10T08:43:10.703Z,8.52
2016-12-10T08:43:51.214Z,8.53
2016-12-10T08:44:31.739Z,8.6
2016-12-10T08:45:12.240Z,8.61
2016-12-10T08:45:52.741Z,8.56
2016-12-10T08:46:33.210Z,8.58
2016-12-10T08:47:13.712Z,8.58
2016-12-10T08:47:54.175Z,8.6
2016-12-10T08:48:35.021Z,8.6
2016-12-10T08:49:15.511Z,8.66
2016-12-10T08:49:56.013Z,8.58
2016-12-10T08:50:36.467Z,8.6
2016-12-10T08:51:16.972Z,8.6
2016-12-10T08:51:57.417Z,8.6
2016-12-10T08:52:37.981Z,8.7
2016-12-10T08:53:18.410Z,8.67
2016-12-10T08:53:58.860Z,8.64
2016-12-10T08:54:39.352Z,8.67
2016-12-10T08:55:19.818Z,8.76
2016-12-10T08:56:00.326Z,8.69
2016-12-10T08:56:40.822Z,8.69
2016-12-10T08:57:21.307Z,8.7
2016-12-10T08:58:01.798Z,8.7
2016-12-10T08:58:42.292Z,8.69
2016-12-10T08:59:22.780Z,8.66
2016-12-10T09:00:03.261Z,8.67
2016-12-10T09:00:43.733Z,8.69
2016-12-10T09:01:24.226Z,8.7
2016-12-10T09:02:04.658Z,8.73
2016-12-10T09:02:45.165Z,8.74
2016-12-10T09:03:25.616Z,8.7
2016-12-10T09:04:06.085Z,8.76
2016-12-10T09:04:46.576Z,8.7
2016-12-10T09:05:27.109Z,8.7